Time;durP1;ratioP1;P1;durP2;ratioP2;P2;SDS_P1;SDS_P2;PMS_P1;PMS_P2;Temp;Humidity;BMP_temperature;BMP_pressure;BME280_temperature;BME280_humidity;BME280_pressure;Samples;Min_cycle;Max_cycle;Signal;HPM_P1;HPM_P2
2022/09/08 00:00:49;;;;;;;9.07;4.43;;;17.00;99.90;;;;;;5063445;28;20040;-70
2022/09/08 00:03:16;;;;;;;10.23;4.85;;;17.00;99.90;;;;;;5063868;28;20068;-69
2022/09/08 00:06:05;;;;;;;9.05;4.30;;;17.10;99.90;;;;;;5062260;28;20040;-69
2022/09/08 00:08:31;;;;;;;10.00;4.20;;;17.00;99.90;;;;;;5063858;28;20671;-69
2022/09/08 00:11:01;;;;;;;8.05;4.20;;;17.00;99.90;;;;;;5063078;28;20150;-69
2022/09/08 00:13:29;;;;;;;11.77;4.45;;;17.00;99.90;;;;;;5060176;28;20045;-69
2022/09/08 00:15:55;;;;;;;9.07;3.97;;;17.00;99.90;;;;;;5062538;28;20070;-69
2022/09/08 00:18:21;;;;;;;8.15;3.70;;;17.00;99.90;;;;;;5063540;28;20060;-69
2022/09/08 00:20:46;;;;;;;11.25;4.47;;;16.90;99.90;;;;;;5061575;28;20405;-69
2022/09/08 00:23:12;;;;;;;9.23;4.10;;;17.00;99.90;;;;;;5062859;28;20036;-69
2022/09/08 00:25:38;;;;;;;7.82;4.60;;;17.00;99.90;;;;;;5063297;28;20044;-68
2022/09/08 00:28:04;;;;;;;10.13;4.10;;;17.00;99.90;;;;;;5064489;28;20777;-69
2022/09/08 00:30:31;;;;;;;10.05;4.50;;;17.00;99.90;;;;;;5065671;28;20032;-69
2022/09/08 00:32:57;;;;;;;8.18;4.00;;;16.90;99.90;;;;;;5062522;28;20850;-69
2022/09/08 00:35:26;;;;;;;9.73;4.50;;;16.90;99.90;;;;;;5062560;28;20093;-69
2022/09/08 00:37:52;;;;;;;9.77;4.30;;;16.90;99.90;;;;;;5062021;28;20049;-69
2022/09/08 00:40:18;;;;;;;11.57;4.97;;;16.90;99.90;;;;;;5063600;28;20123;-69
2022/09/08 00:42:44;;;;;;;9.18;5.30;;;16.90;99.90;;;;;;5065084;28;20033;-69
2022/09/08 00:45:19;;;;;;;12.63;5.85;;;16.90;99.90;;;;;;5063465;28;20555;-69
2022/09/08 00:48:06;;;;;;;10.95;5.85;;;16.80;99.90;;;;;;5066522;28;20098;-69
2022/09/08 00:50:33;;;;;;;12.75;6.03;;;16.80;99.90;;;;;;5045395;28;20082;-68
2022/09/08 00:53:03;;;;;;;11.35;6.05;;;16.80;99.90;;;;;;5062878;28;20048;-69
2022/09/08 00:55:31;;;;;;;10.70;5.85;;;16.80;99.90;;;;;;5046580;28;20109;-69
2022/09/08 00:57:57;;;;;;;11.60;6.40;;;16.80;99.90;;;;;;5061171;28;20123;-69
2022/09/08 01:00:23;;;;;;;10.85;6.55;;;16.80;99.90;;;;;;5064178;28;20167;-69
2022/09/08 01:02:49;;;;;;;13.20;7.32;;;16.80;99.90;;;;;;5063406;28;20044;-69
2022/09/08 01:05:28;;;;;;;11.63;7.10;;;16.80;99.90;;;;;;5064783;28;20036;-69
2022/09/08 01:14:14;;;;;;;13.25;8.00;;;16.70;99.90;;;;;;5063694;28;20374;-69
2022/09/08 01:16:43;;;;;;;15.60;8.30;;;16.80;99.90;;;;;;5066734;28;20045;-69
2022/09/08 01:19:31;;;;;;;13.65;9.07;;;16.70;99.90;;;;;;5067768;28;20051;-69
2022/09/08 01:22:03;;;;;;;19.63;10.30;;;16.70;99.90;;;;;;5050748;28;20045;-69
2022/09/08 01:25:22;;;;;;;16.95;9.82;;;16.70;99.90;;;;;;5068185;28;20044;-69
2022/09/08 01:27:51;;;;;;;22.40;10.30;;;16.60;99.90;;;;;;5042370;28;20056;-69
2022/09/08 01:30:17;;;;;;;15.60;10.90;;;16.70;99.90;;;;;;5067938;28;20047;-69
2022/09/08 01:32:45;;;;;;;16.13;11.55;;;16.70;99.90;;;;;;5066097;28;20048;-69
2022/09/08 01:35:29;;;;;;;15.00;11.75;;;16.60;99.90;;;;;;5067005;28;20052;-69
2022/09/08 01:37:55;;;;;;;20.92;13.07;;;16.60;99.90;;;;;;5068529;28;20056;-69
2022/09/08 01:40:20;;;;;;;19.05;12.70;;;16.60;99.90;;;;;;5067104;28;20575;-69
2022/09/08 01:42:46;;;;;;;17.70;13.02;;;16.60;99.90;;;;;;5066233;28;20078;-69
2022/09/08 01:45:12;;;;;;;20.02;13.07;;;16.50;99.90;;;;;;5050580;28;20513;-69
2022/09/08 01:47:37;;;;;;;20.83;15.18;;;16.60;99.90;;;;;;5067056;28;20497;-69
2022/09/08 01:50:03;;;;;;;20.88;15.05;;;16.50;99.90;;;;;;5066401;28;20048;-69
2022/09/08 01:52:29;;;;;;;20.80;15.73;;;16.60;99.90;;;;;;5067999;28;20052;-70
2022/09/08 01:54:55;;;;;;;22.90;16.02;;;16.50;99.90;;;;;;5066433;28;20044;-69
2022/09/08 01:57:20;;;;;;;22.85;16.55;;;16.60;99.90;;;;;;5068301;28;20072;-69
2022/09/08 01:59:46;;;;;;;20.40;16.77;;;16.60;99.90;;;;;;5065807;28;20554;-69
2022/09/08 02:02:12;;;;;;;24.23;18.58;;;16.60;99.90;;;;;;5065700;28;20051;-69
2022/09/08 02:04:37;;;;;;;26.15;19.65;;;16.60;99.90;;;;;;5065853;28;20047;-69
2022/09/08 02:07:03;;;;;;;25.85;20.35;;;16.50;99.90;;;;;;5066802;28;20451;-69
2022/09/08 02:09:29;;;;;;;24.90;19.83;;;16.60;99.90;;;;;;5065516;28;20739;-68
2022/09/08 02:11:54;;;;;;;27.20;23.08;;;16.60;99.90;;;;;;5067883;28;20174;-69
2022/09/08 02:14:20;;;;;;;30.23;23.10;;;16.60;99.90;;;;;;5050010;28;20040;-69
2022/09/08 02:16:46;;;;;;;30.70;23.30;;;16.60;99.90;;;;;;5065064;28;20060;-69
2022/09/08 02:19:12;;;;;;;31.58;25.30;;;16.60;99.90;;;;;;5065013;28;20039;-68
2022/09/08 02:21:38;;;;;;;35.05;27.58;;;16.60;99.90;;;;;;5067632;28;20119;-69
2022/09/08 02:24:04;;;;;;;35.22;26.83;;;16.60;99.90;;;;;;5065301;28;20046;-69
2022/09/08 02:26:30;;;;;;;33.80;26.63;;;16.70;99.90;;;;;;5065345;28;20182;-69
2022/09/08 02:28:57;;;;;;;36.35;28.52;;;16.70;99.90;;;;;;5063723;28;20140;-69
2022/09/08 02:31:25;;;;;;;32.05;27.80;;;16.70;99.90;;;;;;5065468;28;20040;-69
2022/09/08 02:33:52;;;;;;;35.97;28.88;;;16.70;99.90;;;;;;5047218;28;20147;-69
2022/09/08 02:36:18;;;;;;;34.65;27.75;;;16.80;99.90;;;;;;5066556;28;20052;-69
2022/09/08 02:38:49;;;;;;;32.38;27.55;;;16.80;99.90;;;;;;5046486;28;20045;-69
2022/09/08 02:41:16;;;;;;;33.28;27.42;;;16.80;99.90;;;;;;5064322;28;20068;-69
2022/09/08 02:43:41;;;;;;;38.17;30.40;;;16.80;99.90;;;;;;5064423;28;20032;-69
2022/09/08 02:46:09;;;;;;;37.25;28.95;;;16.80;99.90;;;;;;5065561;28;20459;-69
2022/09/08 02:48:35;;;;;;;35.47;28.63;;;16.80;99.90;;;;;;5064178;28;20454;-69
2022/09/08 02:51:03;;;;;;;37.25;29.50;;;16.80;99.90;;;;;;5064892;28;20127;-69
2022/09/08 02:53:30;;;;;;;31.63;28.17;;;16.80;99.90;;;;;;5065512;28;20536;-69
2022/09/08 02:55:56;;;;;;;35.72;28.73;;;16.80;99.90;;;;;;5062382;28;20963;-69
2022/09/08 02:58:22;;;;;;;39.90;31.35;;;16.90;99.90;;;;;;5066709;28;20044;-69
2022/09/08 03:00:48;;;;;;;37.55;31.00;;;16.90;99.90;;;;;;5063202;28;20044;-69
2022/09/08 03:03:14;;;;;;;36.70;29.17;;;16.90;99.90;;;;;;5046652;28;20531;-69
2022/09/08 03:05:41;;;;;;;38.80;29.25;;;16.90;99.90;;;;;;5064036;28;20044;-69
2022/09/08 03:08:08;;;;;;;39.28;32.05;;;16.90;99.90;;;;;;5065871;28;20063;-69
2022/09/08 03:10:34;;;;;;;35.92;30.55;;;16.90;99.90;;;;;;5063399;28;20040;-70
2022/09/08 03:13:00;;;;;;;41.75;33.17;;;16.90;99.90;;;;;;5065311;28;20182;-69
2022/09/08 03:15:27;;;;;;;33.35;28.98;;;16.90;99.90;;;;;;5004307;28;1296858;-69
2022/09/08 03:17:57;;;;;;;35.58;28.58;;;17.00;99.90;;;;;;5065229;28;20770;-69
2022/09/08 03:20:24;;;;;;;34.53;28.15;;;17.00;99.90;;;;;;5067734;28;20105;-69
2022/09/08 03:22:51;;;;;;;34.60;28.98;;;17.00;99.90;;;;;;5065047;28;20040;-69
2022/09/08 03:25:17;;;;;;;36.08;28.60;;;17.00;99.90;;;;;;5064391;28;20045;-69
2022/09/08 03:27:43;;;;;;;37.30;31.50;;;17.00;99.90;;;;;;5067976;28;20033;-69
2022/09/08 03:30:12;;;;;;;38.38;30.27;;;17.00;99.90;;;;;;5063074;28;20445;-69
2022/09/08 03:32:40;;;;;;;39.40;32.70;;;17.00;99.90;;;;;;5064978;28;20047;-69
2022/09/08 03:35:07;;;;;;;38.65;31.60;;;17.00;99.90;;;;;;5064117;28;20423;-69
2022/09/08 03:37:34;;;;;;;37.92;30.75;;;17.00;99.90;;;;;;5048888;28;20394;-69
2022/09/08 03:40:00;;;;;;;38.25;30.80;;;17.00;99.90;;;;;;5060373;28;20446;-69
2022/09/08 03:42:25;;;;;;;37.45;31.52;;;17.10;99.90;;;;;;5063156;28;20040;-68
2022/09/08 03:44:51;;;;;;;42.08;33.25;;;17.00;99.90;;;;;;5063768;28;20424;-69
2022/09/08 03:47:17;;;;;;;43.53;34.35;;;17.00;99.90;;;;;;5080372;28;20525;-68
2022/09/08 03:49:42;;;;;;;41.40;34.38;;;17.10;99.90;;;;;;5063114;28;20363;-68
2022/09/08 03:52:08;;;;;;;42.25;33.90;;;17.10;99.90;;;;;;5048026;28;20137;-68
2022/09/08 03:54:50;;;;;;;42.05;35.47;;;17.10;99.90;;;;;;5065092;28;20051;-68
2022/09/08 03:57:22;;;;;;;42.60;34.47;;;17.00;99.90;;;;;;5065900;28;20048;-68
2022/09/08 03:59:52;;;;;;;41.40;33.78;;;17.10;99.90;;;;;;5045021;28;20119;-69
2022/09/08 04:02:19;;;;;;;41.38;34.88;;;17.00;99.90;;;;;;5061467;28;20045;-68
2022/09/08 04:04:50;;;;;;;42.63;34.97;;;17.10;99.90;;;;;;5062603;28;20044;-69
2022/09/08 04:07:17;;;;;;;42.90;36.22;;;17.10;99.90;;;;;;5062847;28;20055;-68
2022/09/08 04:09:44;;;;;;;44.45;35.50;;;17.10;99.90;;;;;;5062482;28;20462;-68
2022/09/08 04:12:10;;;;;;;44.30;35.65;;;17.10;99.90;;;;;;5063649;28;20135;-68
2022/09/08 04:14:39;;;;;;;43.00;34.65;;;17.10;99.90;;;;;;5061325;28;20135;-71
2022/09/08 04:17:05;;;;;;;43.30;33.80;;;17.10;99.90;;;;;;5061310;28;20109;-69
2022/09/08 04:19:31;;;;;;;38.50;32.70;;;17.10;99.90;;;;;;5065261;28;20055;-68
2022/09/08 04:21:56;;;;;;;43.30;35.28;;;17.10;99.90;;;;;;5064109;28;20044;-68
2022/09/08 04:24:22;;;;;;;45.67;36.22;;;17.10;99.90;;;;;;5046832;28;20036;-68
2022/09/08 04:26:48;;;;;;;41.80;34.28;;;17.20;99.90;;;;;;5064651;28;20563;-68
2022/09/08 04:29:16;;;;;;;43.50;34.72;;;17.20;99.90;;;;;;5062448;28;20044;-69
2022/09/08 04:31:42;;;;;;;44.03;35.67;;;17.20;99.90;;;;;;5060021;28;20378;-68
2022/09/08 04:34:08;;;;;;;42.30;36.38;;;17.20;99.90;;;;;;5043474;28;20446;-69
2022/09/08 04:36:34;;;;;;;48.30;39.10;;;17.20;99.90;;;;;;5056791;28;20036;-69
2022/09/08 04:39:00;;;;;;;42.92;35.28;;;17.20;99.90;;;;;;5056884;28;20040;-68
2022/09/08 04:41:29;;;;;;;46.13;37.63;;;17.20;99.90;;;;;;5056697;28;20102;-68
2022/09/08 04:43:56;;;;;;;47.45;40.05;;;17.20;99.90;;;;;;5055927;28;20048;-69
2022/09/08 04:46:22;;;;;;;47.17;40.15;;;17.10;99.90;;;;;;5055885;28;20052;-69
2022/09/08 04:48:48;;;;;;;43.92;36.55;;;17.20;99.90;;;;;;5057408;28;20052;-68
2022/09/08 04:51:17;;;;;;;45.80;36.08;;;17.10;99.90;;;;;;5064560;28;20567;-68
2022/09/08 04:53:44;;;;;;;43.08;35.47;;;17.10;99.90;;;;;;5060827;28;20037;-68
2022/09/08 04:56:11;;;;;;;41.38;34.65;;;17.20;99.90;;;;;;5059281;28;20047;-69
2022/09/08 04:58:40;;;;;;;37.72;32.90;;;17.20;99.90;;;;;;5055513;28;20041;-68
2022/09/08 05:01:12;;;;;;;43.22;33.60;;;17.20;99.90;;;;;;5057188;28;20045;-68
2022/09/08 05:03:38;;;;;;;44.25;34.95;;;17.10;99.90;;;;;;5050652;28;20049;-69
2022/09/08 05:06:09;;;;;;;42.65;33.53;;;17.20;99.90;;;;;;5056081;28;20409;-69
2022/09/08 05:08:35;;;;;;;42.55;37.00;;;17.20;99.90;;;;;;5045692;28;20048;-69
2022/09/08 05:11:01;;;;;;;46.28;35.50;;;17.20;99.90;;;;;;5064219;28;20098;-68
2022/09/08 05:13:28;;;;;;;44.33;35.25;;;17.10;99.90;;;;;;5060593;28;20102;-69
2022/09/08 05:16:01;;;;;;;41.20;34.30;;;17.20;99.90;;;;;;5051520;28;20048;-68
2022/09/08 05:18:27;;;;;;;41.05;33.80;;;17.20;99.90;;;;;;5053933;28;20049;-68
2022/09/08 05:20:56;;;;;;;45.95;35.55;;;17.20;99.90;;;;;;5054766;28;20036;-69
2022/09/08 05:23:22;;;;;;;43.47;35.95;;;17.20;99.90;;;;;;5059234;28;20048;-68
2022/09/08 05:25:56;;;;;;;42.90;35.08;;;17.20;99.90;;;;;;5054174;28;20052;-69
2022/09/08 05:28:24;;;;;;;44.67;34.70;;;17.30;99.90;;;;;;5073923;28;20040;-69
2022/09/08 05:30:49;;;;;;;46.80;37.00;;;17.20;99.90;;;;;;5039999;28;20036;-69
2022/09/08 05:33:15;;;;;;;45.83;37.78;;;17.20;99.90;;;;;;5055241;28;20055;-69
2022/09/08 05:35:41;;;;;;;49.97;40.22;;;17.20;99.90;;;;;;5057600;28;20112;-69
2022/09/08 05:38:06;;;;;;;47.70;39.97;;;17.20;99.90;;;;;;5055314;28;20040;-69
2022/09/08 05:40:36;;;;;;;46.00;36.60;;;17.20;99.90;;;;;;5056468;28;20044;-69
2022/09/08 05:43:02;;;;;;;41.03;34.08;;;17.20;99.90;;;;;;5072789;28;20131;-68
2022/09/08 05:45:27;;;;;;;40.67;33.55;;;17.20;99.90;;;;;;5054253;28;20395;-69
2022/09/08 05:47:54;;;;;;;42.10;34.47;;;17.20;99.90;;;;;;5052327;28;20082;-68
2022/09/08 05:50:20;;;;;;;38.42;33.90;;;17.30;99.90;;;;;;5042413;28;20509;-69
2022/09/08 05:52:46;;;;;;;38.40;32.55;;;17.20;99.90;;;;;;5057358;28;20055;-69
2022/09/08 05:55:13;;;;;;;41.03;33.75;;;17.20;99.90;;;;;;5072206;28;20097;-69
2022/09/08 05:57:39;;;;;;;44.55;35.72;;;17.30;99.90;;;;;;5048804;28;20636;-68
2022/09/08 06:00:07;;;;;;;46.95;35.65;;;17.30;99.90;;;;;;5039157;28;20413;-69
2022/09/08 06:02:33;;;;;;;43.30;34.55;;;17.30;99.90;;;;;;5057134;28;20076;-69
2022/09/08 06:04:58;;;;;;;41.88;36.10;;;17.30;99.90;;;;;;5060628;28;20088;-69
2022/09/08 06:07:25;;;;;;;41.50;35.78;;;17.40;99.90;;;;;;5062838;28;20044;-69
2022/09/08 06:09:51;;;;;;;42.22;34.78;;;17.30;99.90;;;;;;5073163;28;20417;-69
2022/09/08 06:12:17;;;;;;;41.60;34.78;;;17.30;99.90;;;;;;5075026;28;20046;-69
2022/09/08 06:14:43;;;;;;;42.50;34.97;;;17.30;99.90;;;;;;5058900;28;20509;-68
2022/09/08 06:17:09;;;;;;;42.08;34.80;;;17.40;99.90;;;;;;5056693;28;20480;-69
2022/09/08 06:19:35;;;;;;;41.80;33.85;;;17.40;99.90;;;;;;5060173;28;20037;-68
2022/09/08 06:22:01;;;;;;;40.22;34.33;;;17.40;99.90;;;;;;5060376;28;20570;-69
2022/09/08 06:24:27;;;;;;;39.63;32.92;;;17.40;99.90;;;;;;5062052;28;20098;-68
2022/09/08 06:26:58;;;;;;;43.58;37.28;;;17.40;99.90;;;;;;5062099;28;20441;-68
2022/09/08 06:29:49;;;;;;;44.63;38.03;;;17.40;99.90;;;;;;5055118;28;20102;-69
2022/09/08 06:32:47;;;;;;;48.70;38.58;;;17.40;99.90;;;;;;5057225;28;20098;-69
2022/09/08 06:35:38;;;;;;;46.50;38.80;;;17.40;99.90;;;;;;5061160;28;20051;-68
2022/09/08 06:38:19;;;;;;;45.35;38.13;;;17.40;99.90;;;;;;5044146;28;20053;-68
2022/09/08 06:40:49;;;;;;;49.25;39.63;;;17.30;99.90;;;;;;5071675;28;20051;-68
2022/09/08 06:43:15;;;;;;;45.15;38.67;;;17.30;99.90;;;;;;5054743;28;20135;-68
2022/09/08 06:46:04;;;;;;;47.90;41.03;;;17.30;99.90;;;;;;5058740;28;20046;-68
2022/09/08 06:48:35;;;;;;;43.20;37.03;;;17.30;99.90;;;;;;5040438;28;20131;-68
2022/09/08 06:51:19;;;;;;;40.22;35.33;;;17.30;99.90;;;;;;5056475;28;20420;-68
2022/09/08 06:53:50;;;;;;;43.50;35.30;;;17.30;99.90;;;;;;5037983;28;20044;-68
2022/09/08 06:56:37;;;;;;;47.90;36.13;;;17.30;99.90;;;;;;5070225;28;20064;-68
2022/09/08 06:59:09;;;;;;;44.55;35.30;;;17.40;99.90;;;;;;5059186;28;20044;-68
2022/09/08 07:01:48;;;;;;;43.80;35.92;;;17.30;99.90;;;;;;5056214;28;20049;-68
2022/09/08 07:04:49;;;;;;;43.33;35.55;;;17.40;99.90;;;;;;5070981;28;20068;-68
2022/09/08 07:07:46;;;;;;;44.13;38.70;;;17.40;99.90;;;;;;5047022;28;20527;-68
2022/09/08 07:10:26;;;;;;;47.90;39.88;;;17.40;99.90;;;;;;5036067;28;20471;-68
2022/09/08 07:13:05;;;;;;;46.50;38.13;;;17.30;99.90;;;;;;5053901;28;20497;-69
2022/09/08 07:15:57;;;;;;;48.03;38.78;;;17.30;99.90;;;;;;5068006;28;20060;-68
2022/09/08 07:19:02;;;;;;;48.10;38.67;;;17.30;99.90;;;;;;5060705;28;20041;-68
2022/09/08 07:21:31;;;;;;;53.65;41.15;;;17.30;99.90;;;;;;5054369;28;20047;-68
2022/09/08 07:23:58;;;;;;;47.97;37.88;;;17.30;99.90;;;;;;5056256;28;20409;-68
2022/09/08 07:26:47;;;;;;;45.08;37.53;;;17.30;99.90;;;;;;5069740;28;20147;-67
2022/09/08 07:29:36;;;;;;;45.10;38.72;;;17.30;99.90;;;;;;5055407;28;20397;-68
2022/09/08 07:32:02;;;;;;;42.75;37.03;;;17.30;99.90;;;;;;5045997;28;20668;-68
2022/09/08 07:34:33;;;;;;;44.25;36.58;;;17.30;99.90;;;;;;5055661;28;20996;-68
2022/09/08 07:37:13;;;;;;;42.80;38.00;;;17.30;99.90;;;;;;5059361;28;20044;-68
2022/09/08 07:40:03;;;;;;;42.22;36.63;;;17.30;99.90;;;;;;5057893;28;20523;-68
2022/09/08 07:42:30;;;;;;;40.67;34.72;;;17.20;99.90;;;;;;5054257;28;20601;-68
2022/09/08 07:45:00;;;;;;;42.03;35.10;;;17.30;99.90;;;;;;5058950;28;20634;-69
2022/09/08 07:48:27;;;;;;;40.40;33.20;;;17.20;99.90;;;;;;5065558;28;20076;-68
2022/09/08 07:51:19;;;;;;;44.33;36.63;;;17.20;99.90;;;;;;4977223;28;20478;-68
2022/09/08 07:54:23;;;;;;;38.03;33.53;;;17.20;99.90;;;;;;4990870;28;20054;-68
2022/09/08 07:57:06;;;;;;;41.53;33.85;;;17.20;99.90;;;;;;4970316;28;20050;-68
2022/09/08 07:59:47;;;;;;;41.25;32.75;;;17.20;99.90;;;;;;4971430;28;20920;-68
2022/09/08 08:02:43;;;;;;;39.10;31.20;;;17.20;99.90;;;;;;5022326;28;20048;-68
2022/09/08 08:05:35;;;;;;;37.42;29.30;;;17.20;99.90;;;;;;5047561;28;20059;-69
2022/09/08 08:08:26;;;;;;;39.28;32.40;;;17.20;99.90;;;;;;5051545;28;20053;-68
2022/09/08 08:10:58;;;;;;;;;;;17.20;99.90;;;;;;5049412;28;20098;-68
2022/09/08 08:13:37;;;;;;;32.70;27.50;;;17.20;99.90;;;;;;5051253;28;20567;-70
2022/09/08 08:16:13;;;;;;;31.35;23.50;;;17.20;99.90;;;;;;5036995;28;20045;-68
2022/09/08 08:19:23;;;;;;;24.63;19.35;;;17.10;99.90;;;;;;5033525;28;20044;-69
2022/09/08 08:21:59;;;;;;;19.92;14.70;;;17.10;99.90;;;;;;5051422;28;20044;-68
2022/09/08 08:24:49;;;;;;;13.23;9.45;;;17.10;99.90;;;;;;5053594;28;20279;-68
2022/09/08 08:27:50;;;;;;;10.88;7.68;;;16.90;99.90;;;;;;5048168;28;20117;-69
2022/09/08 08:30:19;;;;;;;16.38;7.40;;;17.00;99.90;;;;;;5040550;28;20052;-68
2022/09/08 08:32:53;;;;;;;10.77;7.13;;;16.90;99.90;;;;;;5056697;28;20119;-68
2022/09/08 08:35:46;;;;;;;13.38;8.90;;;16.80;99.90;;;;;;5059614;28;20056;-68
2022/09/08 08:38:21;;;;;;;14.35;10.30;;;16.80;99.90;;;;;;5037671;28;20064;-68
2022/09/08 08:40:56;;;;;;;15.48;11.57;;;16.80;99.90;;;;;;5066767;28;20036;-68
2022/09/08 08:43:52;;;;;;;15.73;11.32;;;16.80;99.90;;;;;;5047608;28;20068;-68
2022/09/08 08:46:36;;;;;;;15.73;12.40;;;16.80;99.90;;;;;;5059525;28;20101;-69
2022/09/08 08:49:17;;;;;;;16.60;12.77;;;16.80;99.90;;;;;;5073511;28;20725;-69
2022/09/08 08:52:20;;;;;;;18.92;14.00;;;16.80;99.90;;;;;;5044128;28;20131;-69
2022/09/08 08:55:12;;;;;;;17.55;13.93;;;16.80;99.90;;;;;;5058931;28;20051;-68
2022/09/08 08:57:49;;;;;;;;;;;16.80;99.90;;;;;;5059281;28;20570;-68
2022/09/08 09:00:26;;;;;;;21.48;16.25;;;16.80;99.90;;;;;;5059323;28;19920;-69
2022/09/08 09:03:39;;;;;;;20.67;16.95;;;16.80;99.90;;;;;;5050647;28;20055;-69
2022/09/08 09:06:33;;;;;;;22.77;17.17;;;16.90;99.90;;;;;;5009799;28;20663;-69
2022/09/08 09:09:22;;;;;;;21.35;17.40;;;16.80;99.90;;;;;;5056932;28;20044;-69
2022/09/08 09:11:56;;;;;;;21.75;18.63;;;16.90;99.90;;;;;;5072744;28;20139;-69
2022/09/08 09:14:29;;;;;;;23.98;20.42;;;16.90;99.90;;;;;;5059410;28;20052;-69
2022/09/08 09:17:17;;;;;;;22.15;18.48;;;16.90;99.90;;;;;;5057913;28;20177;-69
2022/09/08 09:20:18;;;;;;;24.05;20.05;;;16.90;99.90;;;;;;5058353;28;20395;-69
2022/09/08 09:22:56;;;;;;;24.17;17.75;;;16.90;99.90;;;;;;5060473;28;20056;-69
2022/09/08 09:25:42;;;;;;;22.23;17.13;;;17.00;99.90;;;;;;5054459;28;20048;-69
2022/09/08 09:28:49;;;;;;;19.40;15.57;;;17.00;99.90;;;;;;5054610;28;20040;-69
2022/09/08 09:31:33;;;;;;;19.27;12.52;;;17.00;99.90;;;;;;5010464;28;20739;-69
2022/09/08 09:34:20;;;;;;;17.90;12.93;;;17.00;99.90;;;;;;5056753;28;20131;-69
2022/09/08 09:37:06;;;;;;;15.75;12.68;;;17.00;99.90;;;;;;5056152;28;20545;-69
2022/09/08 09:39:58;;;;;;;16.45;13.73;;;17.10;99.90;;;;;;5076426;28;20044;-69
2022/09/08 09:42:29;;;;;;;14.77;12.93;;;17.10;99.90;;;;;;5064288;28;20583;-69
2022/09/08 09:45:18;;;;;;;16.75;13.32;;;17.10;99.90;;;;;;5073362;28;20466;-69
2022/09/08 09:47:50;;;;;;;13.52;11.00;;;17.20;99.90;;;;;;5071408;28;20286;-69
2022/09/08 09:50:25;;;;;;;13.43;10.40;;;17.20;99.90;;;;;;5047379;28;20098;-69
2022/09/08 09:53:04;;;;;;;12.05;9.25;;;17.20;99.90;;;;;;5061716;28;20480;-69
2022/09/08 09:56:06;;;;;;;10.32;8.45;;;17.20;99.90;;;;;;5078497;28;20064;-69
2022/09/08 09:59:09;;;;;;;13.00;8.52;;;17.20;99.90;;;;;;5063958;28;20036;-69
2022/09/08 10:02:19;;;;;;;10.40;8.35;;;17.20;99.90;;;;;;5071507;28;20052;-69
2022/09/08 10:05:06;;;;;;;11.10;7.47;;;17.20;99.90;;;;;;4991446;28;20048;-70
2022/09/08 10:07:47;;;;;;;8.90;7.00;;;17.10;99.90;;;;;;5055225;28;20059;-69
2022/09/08 10:10:28;;;;;;;9.13;6.82;;;17.20;99.90;;;;;;5059485;28;20045;-69
2022/09/08 10:13:06;;;;;;;9.15;6.47;;;17.20;99.90;;;;;;5060242;28;20036;-68
2022/09/08 10:16:05;;;;;;;9.15;6.55;;;17.20;99.90;;;;;;5058755;28;20078;-69
2022/09/08 10:18:57;;;;;;;8.40;6.15;;;17.20;99.90;;;;;;5054805;28;20088;-69
2022/09/08 10:22:06;;;;;;;7.32;5.38;;;17.20;99.90;;;;;;5079423;28;20435;-72
2022/09/08 10:25:03;;;;;;;9.10;5.75;;;17.10;99.90;;;;;;5049341;28;20417;-69
2022/09/08 10:27:29;;;;;;;7.38;4.72;;;17.20;99.90;;;;;;5050270;28;20144;-69
2022/09/08 10:30:23;;;;;;;7.40;4.95;;;17.20;99.90;;;;;;5036717;28;20040;-69
2022/09/08 10:33:01;;;;;;;7.50;4.57;;;17.20;99.90;;;;;;5048608;28;20044;-69
2022/09/08 10:35:46;;;;;;;7.78;4.43;;;17.10;99.90;;;;;;5058000;28;20040;-69
2022/09/08 10:38:49;;;;;;;8.88;4.30;;;17.20;99.90;;;;;;5048966;28;20062;-69
2022/09/08 10:41:56;;;;;;;6.88;4.25;;;17.10;99.90;;;;;;5063395;28;20046;-69
2022/09/08 10:45:18;;;;;;;6.03;3.83;;;17.10;99.90;;;;;;5058901;28;20418;-69
2022/09/08 10:48:27;;;;;;;5.55;3.38;;;17.20;99.90;;;;;;4962167;28;20129;-69
2022/09/08 10:50:59;;;;;;;6.97;3.58;;;17.20;99.90;;;;;;4963655;28;20082;-68
2022/09/08 10:53:36;;;;;;;7.38;4.15;;;17.20;99.90;;;;;;5055094;28;20109;-70
2022/09/08 10:56:08;;;;;;;5.88;4.28;;;17.20;99.90;;;;;;5062361;28;20037;-67
2022/09/08 10:58:58;;;;;;;6.75;4.22;;;17.20;99.90;;;;;;5060391;28;20080;-68
2022/09/08 11:01:52;;;;;;;7.97;4.47;;;17.20;99.90;;;;;;5059065;28;20048;-68
2022/09/08 11:04:38;;;;;;;7.90;3.97;;;17.20;99.90;;;;;;5061039;28;20505;-69
2022/09/08 11:07:06;;;;;;;6.72;3.75;;;17.30;99.90;;;;;;5057500;28;21943;-68
2022/09/08 11:09:54;;;;;;;7.22;3.38;;;17.30;99.90;;;;;;5062475;28;20055;-68
2022/09/08 11:12:38;;;;;;;5.90;3.10;;;17.20;99.90;;;;;;5058350;28;20417;-68
2022/09/08 11:15:30;;;;;;;5.20;3.28;;;17.30;99.90;;;;;;5058689;28;20045;-68
2022/09/08 11:18:14;;;;;;;7.18;3.47;;;17.30;99.90;;;;;;5049002;28;20405;-68
2022/09/08 11:20:50;;;;;;;7.25;2.47;;;17.30;99.90;;;;;;5062139;28;20048;-68
2022/09/08 11:23:43;;;;;;;4.63;2.40;;;17.30;99.90;;;;;;5061958;28;20040;-69
2022/09/08 11:26:45;;;;;;;4.85;2.25;;;17.30;99.90;;;;;;5075839;28;20049;-68
2022/09/08 11:29:16;;;;;;;5.70;2.20;;;17.30;99.90;;;;;;5074774;28;20143;-69
2022/09/08 11:31:51;;;;;;;;;;;17.30;99.90;;;;;;5056730;28;20123;-68
2022/09/08 11:34:38;;;;;;;5.05;2.15;;;17.30;99.90;;;;;;5057401;28;19959;-69
2022/09/08 11:37:03;;;;;;;6.40;2.42;;;17.30;99.90;;;;;;5058932;28;20497;-69
2022/09/08 11:40:02;;;;;;;5.00;2.13;;;17.30;99.90;;;;;;5059441;28;20056;-69
2022/09/08 11:42:46;;;;;;;8.43;2.53;;;17.30;99.90;;;;;;5078747;28;20040;-68
2022/09/08 11:45:50;;;;;;;6.13;2.25;;;17.30;99.90;;;;;;5051446;28;20078;-69
2022/09/08 11:48:36;;;;;;;6.55;2.60;;;17.30;99.90;;;;;;5058055;28;20116;-69
2022/09/08 11:51:37;;;;;;;5.45;2.22;;;17.30;99.90;;;;;;5076740;28;20044;-69
2022/09/08 11:54:14;;;;;;;5.38;2.10;;;17.50;99.90;;;;;;5058053;28;20048;-68
2022/09/08 11:56:55;;;;;;;4.88;2.33;;;17.30;99.90;;;;;;5038259;28;20454;-68
2022/09/08 11:59:27;;;;;;;6.07;2.33;;;17.30;99.90;;;;;;5054638;28;20134;-68
2022/09/08 12:02:15;;;;;;;6.50;2.75;;;17.30;99.90;;;;;;5052456;28;20149;-68
2022/09/08 12:05:19;;;;;;;7.75;2.70;;;17.30;99.90;;;;;;5055047;28;20048;-68
2022/09/08 12:08:07;;;;;;;6.22;2.75;;;17.30;99.90;;;;;;5058121;28;20059;-68
2022/09/08 12:10:47;;;;;;;8.10;3.00;;;17.30;99.90;;;;;;5044842;28;20053;-68
2022/09/08 12:13:17;;;;;;;7.93;2.83;;;17.30;99.90;;;;;;5059820;28;20128;-68
2022/09/08 12:16:27;;;;;;;5.88;3.00;;;17.40;99.90;;;;;;5058293;28;20330;-68
2022/09/08 12:19:20;;;;;;;6.05;2.75;;;17.30;99.90;;;;;;5059862;28;20048;-68
2022/09/08 12:21:56;;;;;;;7.63;3.10;;;17.30;99.90;;;;;;5060107;28;20060;-68
2022/09/08 12:24:48;;;;;;;6.28;2.85;;;17.30;99.90;;;;;;5079002;28;20051;-68
2022/09/08 12:27:39;;;;;;;7.05;2.97;;;17.30;99.90;;;;;;5059225;28;20037;-69
2022/09/08 12:30:21;;;;;;;;;;;17.30;99.90;;;;;;5059335;28;20044;-69
2022/09/08 12:32:53;;;;;;;;;;;17.30;99.90;;;;;;5061120;28;19936;-68
2022/09/08 12:35:28;;;;;;;6.00;3.10;;;17.40;99.90;;;;;;5061613;28;19928;-68
2022/09/08 12:38:14;;;;;;;6.60;2.92;;;17.40;99.90;;;;;;5059954;28;20056;-68
2022/09/08 12:41:08;;;;;;;7.63;3.30;;;17.40;99.90;;;;;;5060813;28;20055;-69
2022/09/08 12:43:34;;;;;;;6.18;3.13;;;17.40;99.90;;;;;;5060817;28;20513;-69
2022/09/08 12:46:05;;;;;;;7.28;3.28;;;17.40;99.90;;;;;;5058831;28;20113;-68
2022/09/08 12:48:49;;;;;;;4.90;3.05;;;17.40;99.90;;;;;;5061916;28;20055;-69
2022/09/08 12:51:33;;;;;;;10.13;3.65;;;17.40;99.90;;;;;;5062050;28;20048;-68
2022/09/08 12:54:25;;;;;;;7.00;3.40;;;17.40;99.90;;;;;;5076650;28;20040;-71
2022/09/08 12:57:19;;;;;;;6.13;3.00;;;17.40;99.90;;;;;;5056813;28;20037;-69
2022/09/08 13:00:06;;;;;;;9.32;3.53;;;17.40;99.90;;;;;;5077639;28;20131;-69
2022/09/08 13:02:57;;;;;;;7.03;3.03;;;17.50;99.90;;;;;;5060765;28;20059;-69
2022/09/08 13:05:34;;;;;;;7.18;4.03;;;17.40;99.90;;;;;;5059561;28;20413;-69
2022/09/08 13:08:42;;;;;;;6.80;4.18;;;17.50;99.90;;;;;;5062516;28;20047;-68
2022/09/08 13:11:16;;;;;;;7.22;4.15;;;17.50;99.90;;;;;;5061714;28;20091;-69
2022/09/08 13:13:43;;;;;;;14.95;4.05;;;17.50;99.90;;;;;;5064122;28;20477;-69
2022/09/08 13:16:40;;;;;;;8.25;4.57;;;17.60;99.90;;;;;;5062864;28;20053;-68
2022/09/08 13:19:17;;;;;;;6.95;4.35;;;17.60;99.90;;;;;;5064571;28;20051;-69
2022/09/08 13:22:11;;;;;;;11.80;4.78;;;17.60;99.90;;;;;;5059305;28;20044;-69
2022/09/08 13:24:50;;;;;;;8.07;5.10;;;17.60;99.90;;;;;;5064030;28;20044;-69
2022/09/08 13:27:22;;;;;;;9.65;5.38;;;17.60;99.90;;;;;;5063727;28;20065;-69
2022/09/08 13:30:12;;;;;;;9.93;5.15;;;17.70;99.90;;;;;;5062182;28;20044;-69